sensor_id;sensor_type;location;lat;lon;timestamp;pressure;altitude;pressure_sealevel;temperature
66403;BMP180;53212;52.112;5.144;2022-09-09T00:01:35;100721.00;;;16.30
66403;BMP180;53212;52.112;5.144;2022-09-09T00:04:26;100719.60;;;16.30
66403;BMP180;53212;52.112;5.144;2022-09-09T00:07:21;100719.60;;;16.30
66403;BMP180;53212;52.112;5.144;2022-09-09T00:12:51;100710.60;;;16.20
66403;BMP180;53212;52.112;5.144;2022-09-09T00:15:26;100720.80;;;16.14
66403;BMP180;53212;52.112;5.144;2022-09-09T00:18:29;100713.60;;;16.10
66403;BMP180;53212;52.112;5.144;2022-09-09T00:21:07;100707.40;;;16.10
66403;BMP180;53212;52.112;5.144;2022-09-09T00:23:45;100706.60;;;16.00
66403;BMP180;53212;52.112;5.144;2022-09-09T00:26:56;100704.40;;;16.00
66403;BMP180;53212;52.112;5.144;2022-09-09T00:32:17;100709.00;;;15.90
66403;BMP180;53212;52.112;5.144;2022-09-09T00:34:56;100709.00;;;15.90
66403;BMP180;53212;52.112;5.144;2022-09-09T00:37:25;100704.00;;;15.80
66403;BMP180;53212;52.112;5.144;2022-09-09T00:39:54;100702.60;;;15.70
66403;BMP180;53212;52.112;5.144;2022-09-09T00:42:41;100705.40;;;15.70
66403;BMP180;53212;52.112;5.144;2022-09-09T00:48:11;100705.80;;;15.60
66403;BMP180;53212;52.112;5.144;2022-09-09T00:50:56;100705.00;;;15.60
66403;BMP180;53212;52.112;5.144;2022-09-09T00:58:37;100710.60;;;15.50
66403;BMP180;53212;52.112;5.144;2022-09-09T01:01:11;100713.80;;;15.50
66403;BMP180;53212;52.112;5.144;2022-09-09T01:03:48;100709.00;;;15.50
66403;BMP180;53212;52.112;5.144;2022-09-09T01:06:16;100710.80;;;15.44
66403;BMP180;53212;52.112;5.144;2022-09-09T01:09:16;100703.60;;;15.40
66403;BMP180;53212;52.112;5.144;2022-09-09T01:12:11;100697.80;;;15.30
66403;BMP180;53212;52.112;5.144;2022-09-09T01:14:48;100705.80;;;15.30
66403;BMP180;53212;52.112;5.144;2022-09-09T01:17:21;100702.20;;;15.24
66403;BMP180;53212;52.112;5.144;2022-09-09T01:20:10;100701.20;;;15.20
66403;BMP180;53212;52.112;5.144;2022-09-09T01:28:15;100697.20;;;15.20
66403;BMP180;53212;52.112;5.144;2022-09-09T01:30:42;100695.40;;;15.20
66403;BMP180;53212;52.112;5.144;2022-09-09T01:33:14;100696.40;;;15.16
66403;BMP180;53212;52.112;5.144;2022-09-09T01:35:59;100700.60;;;15.10
66403;BMP180;53212;52.112;5.144;2022-09-09T01:38:27;100699.60;;;15.10
66403;BMP180;53212;52.112;5.144;2022-09-09T01:40:54;100694.20;;;15.08
66403;BMP180;53212;52.112;5.144;2022-09-09T01:43:21;100692.60;;;15.00
66403;BMP180;53212;52.112;5.144;2022-09-09T01:45:49;100688.80;;;15.00
66403;BMP180;53212;52.112;5.144;2022-09-09T01:48:17;100690.40;;;15.00
66403;BMP180;53212;52.112;5.144;2022-09-09T01:50:44;100685.60;;;14.92
66403;BMP180;53212;52.112;5.144;2022-09-09T01:53:11;100679.20;;;14.90
66403;BMP180;53212;52.112;5.144;2022-09-09T01:55:40;100678.80;;;14.90
66403;BMP180;53212;52.112;5.144;2022-09-09T01:58:43;100668.80;;;14.88
66403;BMP180;53212;52.112;5.144;2022-09-09T02:01:44;100671.00;;;14.82
66403;BMP180;53212;52.112;5.144;2022-09-09T02:06:53;100670.80;;;14.70
66403;BMP180;53212;52.112;5.144;2022-09-09T02:09:24;100671.20;;;14.62
66403;BMP180;53212;52.112;5.144;2022-09-09T02:11:59;100671.40;;;14.60
66403;BMP180;53212;52.112;5.144;2022-09-09T02:14:35;100668.20;;;14.60
66403;BMP180;53212;52.112;5.144;2022-09-09T02:17:11;100660.20;;;14.60
66403;BMP180;53212;52.112;5.144;2022-09-09T02:19:54;100664.00;;;14.60
66403;BMP180;53212;52.112;5.144;2022-09-09T02:22:24;100661.60;;;14.60
66403;BMP180;53212;52.112;5.144;2022-09-09T02:24:50;100667.40;;;14.60
66403;BMP180;53212;52.112;5.144;2022-09-09T02:27:20;100667.60;;;14.60
66403;BMP180;53212;52.112;5.144;2022-09-09T02:29:49;100663.60;;;14.60
66403;BMP180;53212;52.112;5.144;2022-09-09T02:32:20;100664.20;;;14.60
66403;BMP180;53212;52.112;5.144;2022-09-09T02:34:54;100662.80;;;14.60
66403;BMP180;53212;52.112;5.144;2022-09-09T02:37:25;100660.40;;;14.60
66403;BMP180;53212;52.112;5.144;2022-09-09T02:39:54;100658.00;;;14.60
66403;BMP180;53212;52.112;5.144;2022-09-09T02:42:20;100661.60;;;14.60
66403;BMP180;53212;52.112;5.144;2022-09-09T02:44:46;100657.00;;;14.60
66403;BMP180;53212;52.112;5.144;2022-09-09T02:47:59;100653.00;;;14.60
66403;BMP180;53212;52.112;5.144;2022-09-09T02:50:28;100651.60;;;14.50
66403;BMP180;53212;52.112;5.144;2022-09-09T02:53:21;100651.60;;;14.50
66403;BMP180;53212;52.112;5.144;2022-09-09T02:56:04;100654.60;;;14.50
66403;BMP180;53212;52.112;5.144;2022-09-09T02:58:31;100648.80;;;14.50
66403;BMP180;53212;52.112;5.144;2022-09-09T03:00:57;100652.00;;;14.50
66403;BMP180;53212;52.112;5.144;2022-09-09T03:03:24;100650.60;;;14.50
66403;BMP180;53212;52.112;5.144;2022-09-09T03:05:49;100651.80;;;14.50
66403;BMP180;53212;52.112;5.144;2022-09-09T03:08:15;100652.00;;;14.50
66403;BMP180;53212;52.112;5.144;2022-09-09T03:10:41;100652.00;;;14.60
66403;BMP180;53212;52.112;5.144;2022-09-09T03:13:07;100645.60;;;14.50
66403;BMP180;53212;52.112;5.144;2022-09-09T03:15:34;100637.80;;;14.50
66403;BMP180;53212;52.112;5.144;2022-09-09T03:18:00;100639.60;;;14.42
66403;BMP180;53212;52.112;5.144;2022-09-09T03:20:28;100635.00;;;14.50
66403;BMP180;53212;52.112;5.144;2022-09-09T03:22:54;100637.20;;;14.40
66403;BMP180;53212;52.112;5.144;2022-09-09T03:25:20;100636.40;;;14.40
66403;BMP180;53212;52.112;5.144;2022-09-09T03:27:49;100642.20;;;14.34
66403;BMP180;53212;52.112;5.144;2022-09-09T03:30:15;100651.80;;;14.30
66403;BMP180;53212;52.112;5.144;2022-09-09T03:32:41;100646.80;;;14.30
66403;BMP180;53212;52.112;5.144;2022-09-09T03:35:07;100642.00;;;14.20
66403;BMP180;53212;52.112;5.144;2022-09-09T03:37:33;100640.00;;;14.20
66403;BMP180;53212;52.112;5.144;2022-09-09T03:39:59;100635.80;;;14.20
66403;BMP180;53212;52.112;5.144;2022-09-09T03:42:25;100638.20;;;14.20
66403;BMP180;53212;52.112;5.144;2022-09-09T03:44:50;100638.00;;;14.10
66403;BMP180;53212;52.112;5.144;2022-09-09T03:47:20;100636.60;;;14.10
66403;BMP180;53212;52.112;5.144;2022-09-09T03:49:47;100632.60;;;14.10
66403;BMP180;53212;52.112;5.144;2022-09-09T03:52:14;100641.40;;;14.06
66403;BMP180;53212;52.112;5.144;2022-09-09T03:54:40;100639.20;;;14.08
66403;BMP180;53212;52.112;5.144;2022-09-09T03:57:09;100634.80;;;14.00
66403;BMP180;53212;52.112;5.144;2022-09-09T03:59:34;100634.60;;;14.00
66403;BMP180;53212;52.112;5.144;2022-09-09T04:02:00;100635.40;;;14.00
66403;BMP180;53212;52.112;5.144;2022-09-09T04:04:26;100634.80;;;14.00
66403;BMP180;53212;52.112;5.144;2022-09-09T04:06:53;100634.00;;;13.96
66403;BMP180;53212;52.112;5.144;2022-09-09T04:09:18;100628.20;;;14.00
66403;BMP180;53212;52.112;5.144;2022-09-09T04:11:44;100625.60;;;13.96
66403;BMP180;53212;52.112;5.144;2022-09-09T04:14:11;100623.20;;;13.90
66403;BMP180;53212;52.112;5.144;2022-09-09T04:16:38;100623.60;;;13.90
66403;BMP180;53212;52.112;5.144;2022-09-09T04:19:04;100621.80;;;13.98
66403;BMP180;53212;52.112;5.144;2022-09-09T04:21:31;100619.20;;;14.00
66403;BMP180;53212;52.112;5.144;2022-09-09T04:23:57;100618.60;;;13.98
66403;BMP180;53212;52.112;5.144;2022-09-09T04:26:23;100622.00;;;13.98
66403;BMP180;53212;52.112;5.144;2022-09-09T04:28:48;100617.00;;;14.00
66403;BMP180;53212;52.112;5.144;2022-09-09T04:31:21;100617.40;;;14.00
66403;BMP180;53212;52.112;5.144;2022-09-09T04:33:50;100611.20;;;14.00
66403;BMP180;53212;52.112;5.144;2022-09-09T04:36:16;100604.40;;;14.00
66403;BMP180;53212;52.112;5.144;2022-09-09T04:38:43;100600.20;;;14.00
66403;BMP180;53212;52.112;5.144;2022-09-09T04:41:10;100602.40;;;14.00
66403;BMP180;53212;52.112;5.144;2022-09-09T04:43:37;100605.00;;;13.90
66403;BMP180;53212;52.112;5.144;2022-09-09T04:46:06;100602.40;;;13.92
66403;BMP180;53212;52.112;5.144;2022-09-09T04:48:32;100598.00;;;13.90
66403;BMP180;53212;52.112;5.144;2022-09-09T04:51:08;100600.80;;;13.98
66403;BMP180;53212;52.112;5.144;2022-09-09T04:53:34;100601.40;;;14.00
66403;BMP180;53212;52.112;5.144;2022-09-09T04:56:15;100599.40;;;13.96
66403;BMP180;53212;52.112;5.144;2022-09-09T04:58:42;100604.80;;;13.90
66403;BMP180;53212;52.112;5.144;2022-09-09T05:01:17;100607.60;;;13.90
66403;BMP180;53212;52.112;5.144;2022-09-09T05:03:44;100604.40;;;13.90
66403;BMP180;53212;52.112;5.144;2022-09-09T05:06:19;100603.00;;;13.80
66403;BMP180;53212;52.112;5.144;2022-09-09T05:08:45;100598.40;;;13.80
66403;BMP180;53212;52.112;5.144;2022-09-09T05:11:16;100596.60;;;13.80
66403;BMP180;53212;52.112;5.144;2022-09-09T05:13:42;100594.20;;;13.82
66403;BMP180;53212;52.112;5.144;2022-09-09T05:16:08;100591.60;;;13.90
66403;BMP180;53212;52.112;5.144;2022-09-09T05:18:37;100592.60;;;13.90
66403;BMP180;53212;52.112;5.144;2022-09-09T05:21:03;100586.60;;;13.90
66403;BMP180;53212;52.112;5.144;2022-09-09T05:23:29;100591.80;;;13.90
66403;BMP180;53212;52.112;5.144;2022-09-09T05:25:58;100594.40;;;13.90
66403;BMP180;53212;52.112;5.144;2022-09-09T05:28:30;100596.80;;;13.90
66403;BMP180;53212;52.112;5.144;2022-09-09T05:31:02;100601.40;;;13.90
66403;BMP180;53212;52.112;5.144;2022-09-09T05:33:34;100596.60;;;13.90
66403;BMP180;53212;52.112;5.144;2022-09-09T05:36:07;100591.80;;;13.92
66403;BMP180;53212;52.112;5.144;2022-09-09T05:38:34;100579.60;;;14.00
66403;BMP180;53212;52.112;5.144;2022-09-09T05:41:02;100578.20;;;14.00
66403;BMP180;53212;52.112;5.144;2022-09-09T05:43:29;100570.80;;;14.00
66403;BMP180;53212;52.112;5.144;2022-09-09T05:46:17;100583.20;;;14.08
66403;BMP180;53212;52.112;5.144;2022-09-09T05:48:46;100598.00;;;14.10
66403;BMP180;53212;52.112;5.144;2022-09-09T05:51:18;100595.20;;;14.20
66403;BMP180;53212;52.112;5.144;2022-09-09T05:53:46;100596.80;;;14.20
66403;BMP180;53212;52.112;5.144;2022-09-09T05:56:18;100597.80;;;14.30
66403;BMP180;53212;52.112;5.144;2022-09-09T05:58:44;100601.40;;;14.40
66403;BMP180;53212;52.112;5.144;2022-09-09T06:01:21;100603.00;;;14.50
66403;BMP180;53212;52.112;5.144;2022-09-09T06:03:49;100601.80;;;14.60
66403;BMP180;53212;52.112;5.144;2022-09-09T06:06:18;100595.40;;;14.70
66403;BMP180;53212;52.112;5.144;2022-09-09T06:08:46;100597.20;;;14.72
66403;BMP180;53212;52.112;5.144;2022-09-09T06:11:27;100595.00;;;14.80
66403;BMP180;53212;52.112;5.144;2022-09-09T06:13:56;100593.20;;;14.80
66403;BMP180;53212;52.112;5.144;2022-09-09T06:16:25;100591.80;;;14.90
66403;BMP180;53212;52.112;5.144;2022-09-09T06:18:53;100596.00;;;14.90
66403;BMP180;53212;52.112;5.144;2022-09-09T06:21:34;100590.40;;;15.00
66403;BMP180;53212;52.112;5.144;2022-09-09T06:24:03;100592.20;;;15.10
66403;BMP180;53212;52.112;5.144;2022-09-09T06:26:38;100596.00;;;15.20
66403;BMP180;53212;52.112;5.144;2022-09-09T06:29:07;100596.20;;;15.30
66403;BMP180;53212;52.112;5.144;2022-09-09T06:31:35;100595.00;;;15.40
66403;BMP180;53212;52.112;5.144;2022-09-09T06:34:05;100590.20;;;15.50
66403;BMP180;53212;52.112;5.144;2022-09-09T06:36:33;100582.00;;;15.68
66403;BMP180;53212;52.112;5.144;2022-09-09T06:39:00;100584.00;;;15.80
66403;BMP180;53212;52.112;5.144;2022-09-09T06:41:30;100584.40;;;15.98
66403;BMP180;53212;52.112;5.144;2022-09-09T06:43:56;100581.40;;;16.10
66403;BMP180;53212;52.112;5.144;2022-09-09T06:46:25;100583.00;;;16.14
66403;BMP180;53212;52.112;5.144;2022-09-09T06:48:54;100588.00;;;16.10
66403;BMP180;53212;52.112;5.144;2022-09-09T06:51:31;100586.80;;;16.14
66403;BMP180;53212;52.112;5.144;2022-09-09T06:54:00;100585.80;;;16.20
66403;BMP180;53212;52.112;5.144;2022-09-09T06:56:30;100581.60;;;16.20
66403;BMP180;53212;52.112;5.144;2022-09-09T06:58:58;100579.40;;;16.30
66403;BMP180;53212;52.112;5.144;2022-09-09T07:01:39;100584.00;;;16.40
66403;BMP180;53212;52.112;5.144;2022-09-09T07:04:16;100582.60;;;16.74
66403;BMP180;53212;52.112;5.144;2022-09-09T07:06:45;100577.80;;;17.00
66403;BMP180;53212;52.112;5.144;2022-09-09T07:09:14;100580.40;;;17.24
66403;BMP180;53212;52.112;5.144;2022-09-09T07:11:50;100581.40;;;17.40
66403;BMP180;53212;52.112;5.144;2022-09-09T07:14:18;100577.60;;;17.60
66403;BMP180;53212;52.112;5.144;2022-09-09T07:16:45;100573.20;;;17.72
66403;BMP180;53212;52.112;5.144;2022-09-09T07:19:12;100570.00;;;17.80
66403;BMP180;53212;52.112;5.144;2022-09-09T07:21:39;100574.80;;;18.00
66403;BMP180;53212;52.112;5.144;2022-09-09T07:24:07;100574.60;;;18.10
66403;BMP180;53212;52.112;5.144;2022-09-09T07:26:57;100576.20;;;18.20
66403;BMP180;53212;52.112;5.144;2022-09-09T07:29:23;100578.20;;;18.20
66403;BMP180;53212;52.112;5.144;2022-09-09T07:31:49;100576.60;;;18.20
66403;BMP180;53212;52.112;5.144;2022-09-09T07:34:20;100587.00;;;18.20
66403;BMP180;53212;52.112;5.144;2022-09-09T07:36:46;100582.80;;;18.10
66403;BMP180;53212;52.112;5.144;2022-09-09T07:39:14;100581.00;;;18.04
66403;BMP180;53212;52.112;5.144;2022-09-09T07:41:48;100594.20;;;18.10
66403;BMP180;53212;52.112;5.144;2022-09-09T07:44:24;100592.00;;;18.10
66403;BMP180;53212;52.112;5.144;2022-09-09T07:46:50;100591.60;;;18.20
66403;BMP180;53212;52.112;5.144;2022-09-09T07:49:16;100592.40;;;18.40
66403;BMP180;53212;52.112;5.144;2022-09-09T07:51:46;100596.00;;;18.50
66403;BMP180;53212;52.112;5.144;2022-09-09T07:54:14;100603.00;;;18.50
66403;BMP180;53212;52.112;5.144;2022-09-09T07:56:41;100603.40;;;18.40
66403;BMP180;53212;52.112;5.144;2022-09-09T07:59:08;100608.40;;;18.20
66403;BMP180;53212;52.112;5.144;2022-09-09T08:01:53;100604.00;;;18.10
66403;BMP180;53212;52.112;5.144;2022-09-09T08:04:25;100602.20;;;18.08
66403;BMP180;53212;52.112;5.144;2022-09-09T08:07:10;100601.40;;;18.00
66403;BMP180;53212;52.112;5.144;2022-09-09T08:09:36;100604.80;;;17.90
66403;BMP180;53212;52.112;5.144;2022-09-09T08:12:01;100600.80;;;17.90
66403;BMP180;53212;52.112;5.144;2022-09-09T08:14:27;100594.80;;;17.88
66403;BMP180;53212;52.112;5.144;2022-09-09T08:16:53;100601.00;;;17.80
66403;BMP180;53212;52.112;5.144;2022-09-09T08:19:19;100600.40;;;17.80
66403;BMP180;53212;52.112;5.144;2022-09-09T08:21:45;100599.80;;;17.90
66403;BMP180;53212;52.112;5.144;2022-09-09T08:24:12;100609.20;;;17.98
66403;BMP180;53212;52.112;5.144;2022-09-09T08:26:46;100604.20;;;18.00
66403;BMP180;53212;52.112;5.144;2022-09-09T08:29:13;100603.40;;;18.00
66403;BMP180;53212;52.112;5.144;2022-09-09T08:31:46;100600.00;;;18.00
66403;BMP180;53212;52.112;5.144;2022-09-09T08:34:13;100602.20;;;18.10
66403;BMP180;53212;52.112;5.144;2022-09-09T08:36:44;100600.20;;;18.30
66403;BMP180;53212;52.112;5.144;2022-09-09T08:39:13;100605.20;;;18.40
66403;BMP180;53212;52.112;5.144;2022-09-09T08:50:27;100617.00;;;18.26
66403;BMP180;53212;52.112;5.144;2022-09-09T08:53:32;100618.60;;;18.20
66403;BMP180;53212;52.112;5.144;2022-09-09T08:56:18;100620.60;;;18.20
66403;BMP180;53212;52.112;5.144;2022-09-09T08:58:54;100622.20;;;18.26
66403;BMP180;53212;52.112;5.144;2022-09-09T09:07:18;100624.00;;;18.10
66403;BMP180;53212;52.112;5.144;2022-09-09T09:12:53;100626.80;;;18.00
66403;BMP180;53212;52.112;5.144;2022-09-09T09:15:25;100626.40;;;17.98
66403;BMP180;53212;52.112;5.144;2022-09-09T09:17:51;100628.40;;;17.90
66403;BMP180;53212;52.112;5.144;2022-09-09T09:20:27;100628.80;;;17.90
66403;BMP180;53212;52.112;5.144;2022-09-09T09:22:59;100627.40;;;18.00
66403;BMP180;53212;52.112;5.144;2022-09-09T09:25:32;100627.60;;;18.00
66403;BMP180;53212;52.112;5.144;2022-09-09T09:28:15;100628.00;;;18.00
66403;BMP180;53212;52.112;5.144;2022-09-09T09:33:53;100631.20;;;18.00
66403;BMP180;53212;52.112;5.144;2022-09-09T09:36:24;100633.20;;;18.00
66403;BMP180;53212;52.112;5.144;2022-09-09T09:39:02;100638.40;;;17.90
66403;BMP180;53212;52.112;5.144;2022-09-09T09:41:42;100640.80;;;17.90
66403;BMP180;53212;52.112;5.144;2022-09-09T09:44:28;100644.20;;;17.90
66403;BMP180;53212;52.112;5.144;2022-09-09T09:47:12;100645.20;;;17.90
66403;BMP180;53212;52.112;5.144;2022-09-09T09:49:39;100647.00;;;17.80
66403;BMP180;53212;52.112;5.144;2022-09-09T09:52:06;100641.00;;;17.70
66403;BMP180;53212;52.112;5.144;2022-09-09T09:54:37;100643.80;;;17.70
66403;BMP180;53212;52.112;5.144;2022-09-09T09:57:13;100638.80;;;17.72
66403;BMP180;53212;52.112;5.144;2022-09-09T09:59:40;100639.40;;;17.80
66403;BMP180;53212;52.112;5.144;2022-09-09T10:04:38;100630.60;;;17.90
66403;BMP180;53212;52.112;5.144;2022-09-09T10:07:20;100627.40;;;17.92
66403;BMP180;53212;52.112;5.144;2022-09-09T10:09:53;100629.40;;;18.00
66403;BMP180;53212;52.112;5.144;2022-09-09T10:18:31;100635.00;;;18.00
66403;BMP180;53212;52.112;5.144;2022-09-09T10:27:38;100636.60;;;17.90
66403;BMP180;53212;52.112;5.144;2022-09-09T10:33:17;100638.40;;;19.00
66403;BMP180;53212;52.112;5.144;2022-09-09T10:36:20;100634.80;;;19.38
66403;BMP180;53212;52.112;5.144;2022-09-09T10:38:53;100634.80;;;19.56
66403;BMP180;53212;52.112;5.144;2022-09-09T10:44:42;100629.20;;;19.80
66403;BMP180;53212;52.112;5.144;2022-09-09T10:50:18;100626.60;;;20.04
66403;BMP180;53212;52.112;5.144;2022-09-09T10:55:59;100627.80;;;20.40
66403;BMP180;53212;52.112;5.144;2022-09-09T10:58:36;100626.60;;;20.40
66403;BMP180;53212;52.112;5.144;2022-09-09T11:04:32;100624.00;;;20.20
66403;BMP180;53212;52.112;5.144;2022-09-09T11:07:09;100626.00;;;20.20
66403;BMP180;53212;52.112;5.144;2022-09-09T11:09:42;100621.60;;;20.00
66403;BMP180;53212;52.112;5.144;2022-09-09T11:12:17;100617.00;;;19.78
66403;BMP180;53212;52.112;5.144;2022-09-09T11:17:24;100615.80;;;19.52
66403;BMP180;53212;52.112;5.144;2022-09-09T11:19:53;100612.40;;;19.60
66403;BMP180;53212;52.112;5.144;2022-09-09T11:22:56;100612.60;;;19.56
66403;BMP180;53212;52.112;5.144;2022-09-09T11:25:48;100612.00;;;19.60
66403;BMP180;53212;52.112;5.144;2022-09-09T11:31:50;100609.00;;;19.94
66403;BMP180;53212;52.112;5.144;2022-09-09T11:34:51;100611.80;;;20.10
66403;BMP180;53212;52.112;5.144;2022-09-09T11:40:31;100605.80;;;19.90
66403;BMP180;53212;52.112;5.144;2022-09-09T11:43:24;100610.00;;;19.80
66403;BMP180;53212;52.112;5.144;2022-09-09T11:45:53;100602.20;;;19.68
66403;BMP180;53212;52.112;5.144;2022-09-09T11:48:32;100608.60;;;19.50
66403;BMP180;53212;52.112;5.144;2022-09-09T11:51:34;100614.20;;;19.40
66403;BMP180;53212;52.112;5.144;2022-09-09T11:54:02;100616.20;;;19.34
66403;BMP180;53212;52.112;5.144;2022-09-09T11:59:20;100617.40;;;19.10
66403;BMP180;53212;52.112;5.144;2022-09-09T12:01:55;100612.60;;;19.16
66403;BMP180;53212;52.112;5.144;2022-09-09T12:10:01;100614.60;;;19.00
66403;BMP180;53212;52.112;5.144;2022-09-09T12:12:38;100615.60;;;18.80
66403;BMP180;53212;52.112;5.144;2022-09-09T12:17:54;100619.00;;;19.00
66403;BMP180;53212;52.112;5.144;2022-09-09T12:23:55;100612.20;;;19.60
66403;BMP180;53212;52.112;5.144;2022-09-09T12:26:38;100615.00;;;20.00
66403;BMP180;53212;52.112;5.144;2022-09-09T12:29:24;100617.80;;;20.30
66403;BMP180;53212;52.112;5.144;2022-09-09T12:32:16;100611.20;;;20.50
66403;BMP180;53212;52.112;5.144;2022-09-09T12:34:47;100613.80;;;20.66
66403;BMP180;53212;52.112;5.144;2022-09-09T12:37:34;100609.60;;;20.80
66403;BMP180;53212;52.112;5.144;2022-09-09T12:40:23;100602.00;;;21.06
66403;BMP180;53212;52.112;5.144;2022-09-09T12:42:50;100599.80;;;21.48
66403;BMP180;53212;52.112;5.144;2022-09-09T12:45:22;100597.00;;;21.72
66403;BMP180;53212;52.112;5.144;2022-09-09T12:47:57;100600.60;;;22.14
66403;BMP180;53212;52.112;5.144;2022-09-09T12:50:28;100599.80;;;22.30
66403;BMP180;53212;52.112;5.144;2022-09-09T12:52:57;100604.00;;;22.20
66403;BMP180;53212;52.112;5.144;2022-09-09T12:55:36;100597.80;;;21.84
66403;BMP180;53212;52.112;5.144;2022-09-09T12:58:04;100602.00;;;21.50
66403;BMP180;53212;52.112;5.144;2022-09-09T13:00:35;100598.80;;;21.14
66403;BMP180;53212;52.112;5.144;2022-09-09T13:03:16;100600.80;;;20.80
66403;BMP180;53212;52.112;5.144;2022-09-09T13:05:42;100604.00;;;20.60
66403;BMP180;53212;52.112;5.144;2022-09-09T13:08:13;100611.80;;;20.56
66403;BMP180;53212;52.112;5.144;2022-09-09T13:10:52;100606.80;;;20.50
66403;BMP180;53212;52.112;5.144;2022-09-09T13:13:32;100609.40;;;20.42
66403;BMP180;53212;52.112;5.144;2022-09-09T13:16:02;100609.40;;;20.40
66403;BMP180;53212;52.112;5.144;2022-09-09T13:18:40;100605.40;;;20.44
66403;BMP180;53212;52.112;5.144;2022-09-09T13:21:07;100604.40;;;20.70
66403;BMP180;53212;52.112;5.144;2022-09-09T13:23:35;100602.40;;;21.00
66403;BMP180;53212;52.112;5.144;2022-09-09T13:26:21;100600.40;;;21.30
66403;BMP180;53212;52.112;5.144;2022-09-09T13:28:48;100596.20;;;21.40
66403;BMP180;53212;52.112;5.144;2022-09-09T13:31:33;100600.40;;;21.60
66403;BMP180;53212;52.112;5.144;2022-09-09T13:33:59;100606.00;;;21.90
66403;BMP180;53212;52.112;5.144;2022-09-09T13:36:33;100606.20;;;22.00
66403;BMP180;53212;52.112;5.144;2022-09-09T13:39:02;100604.20;;;22.10
66403;BMP180;53212;52.112;5.144;2022-09-09T13:41:42;100599.80;;;21.90
66403;BMP180;53212;52.112;5.144;2022-09-09T13:44:25;100600.00;;;21.80
66403;BMP180;53212;52.112;5.144;2022-09-09T13:47:22;100599.80;;;21.60
66403;BMP180;53212;52.112;5.144;2022-09-09T13:49:52;100599.00;;;21.30
66403;BMP180;53212;52.112;5.144;2022-09-09T13:52:19;100601.40;;;21.04
66403;BMP180;53212;52.112;5.144;2022-09-09T13:54:52;100599.80;;;20.80
66403;BMP180;53212;52.112;5.144;2022-09-09T13:57:25;100600.40;;;20.56
66403;BMP180;53212;52.112;5.144;2022-09-09T13:59:53;100598.60;;;20.40
66403;BMP180;53212;52.112;5.144;2022-09-09T14:02:20;100607.80;;;20.20
66403;BMP180;53212;52.112;5.144;2022-09-09T14:04:46;100617.80;;;20.10
66403;BMP180;53212;52.112;5.144;2022-09-09T14:07:17;100612.80;;;20.06
66403;BMP180;53212;52.112;5.144;2022-09-09T14:09:43;100612.00;;;19.90
66403;BMP180;53212;52.112;5.144;2022-09-09T14:12:13;100609.60;;;19.64
66403;BMP180;53212;52.112;5.144;2022-09-09T14:14:40;100613.60;;;19.60
66403;BMP180;53212;52.112;5.144;2022-09-09T14:17:07;100608.00;;;19.40
66403;BMP180;53212;52.112;5.144;2022-09-09T14:19:33;100610.00;;;19.30
66403;BMP180;53212;52.112;5.144;2022-09-09T14:21:59;100613.80;;;19.18
66403;BMP180;53212;52.112;5.144;2022-09-09T14:24:25;100612.60;;;19.00
66403;BMP180;53212;52.112;5.144;2022-09-09T14:26:50;100609.40;;;18.84
66403;BMP180;53212;52.112;5.144;2022-09-09T14:29:16;100606.80;;;18.80
66403;BMP180;53212;52.112;5.144;2022-09-09T14:31:42;100600.20;;;19.00
66403;BMP180;53212;52.112;5.144;2022-09-09T14:34:11;100599.60;;;19.38
66403;BMP180;53212;52.112;5.144;2022-09-09T14:36:37;100599.80;;;19.90
66403;BMP180;53212;52.112;5.144;2022-09-09T14:39:06;100600.60;;;20.18
66403;BMP180;53212;52.112;5.144;2022-09-09T14:41:32;100594.60;;;20.50
66403;BMP180;53212;52.112;5.144;2022-09-09T14:43:58;100594.20;;;20.80
66403;BMP180;53212;52.112;5.144;2022-09-09T14:46:25;100593.20;;;21.06
66403;BMP180;53212;52.112;5.144;2022-09-09T14:48:52;100591.00;;;21.18
66403;BMP180;53212;52.112;5.144;2022-09-09T14:51:24;100588.20;;;21.10
66403;BMP180;53212;52.112;5.144;2022-09-09T14:53:56;100587.40;;;21.00
66403;BMP180;53212;52.112;5.144;2022-09-09T14:56:26;100596.00;;;20.78
66403;BMP180;53212;52.112;5.144;2022-09-09T14:58:56;100602.40;;;20.60
66403;BMP180;53212;52.112;5.144;2022-09-09T15:01:23;100600.00;;;20.40
66403;BMP180;53212;52.112;5.144;2022-09-09T15:03:55;100604.80;;;20.32
66403;BMP180;53212;52.112;5.144;2022-09-09T15:06:22;100609.40;;;20.10
66403;BMP180;53212;52.112;5.144;2022-09-09T15:08:51;100608.80;;;19.90
66403;BMP180;53212;52.112;5.144;2022-09-09T15:11:18;100610.60;;;19.90
66403;BMP180;53212;52.112;5.144;2022-09-09T15:13:45;100612.80;;;19.90
66403;BMP180;53212;52.112;5.144;2022-09-09T15:16:18;100618.00;;;19.90
66403;BMP180;53212;52.112;5.144;2022-09-09T15:18:45;100617.20;;;19.70
66403;BMP180;53212;52.112;5.144;2022-09-09T15:21:16;100620.40;;;19.70
66403;BMP180;53212;52.112;5.144;2022-09-09T15:23:44;100617.60;;;19.70
66403;BMP180;53212;52.112;5.144;2022-09-09T15:26:11;100625.40;;;19.70
66403;BMP180;53212;52.112;5.144;2022-09-09T15:28:40;100624.80;;;19.70
66403;BMP180;53212;52.112;5.144;2022-09-09T15:31:21;100624.60;;;19.70
66403;BMP180;53212;52.112;5.144;2022-09-09T15:33:56;100625.80;;;19.60
66403;BMP180;53212;52.112;5.144;2022-09-09T15:36:39;100626.80;;;19.70
66403;BMP180;53212;52.112;5.144;2022-09-09T15:39:11;100627.20;;;19.70
66403;BMP180;53212;52.112;5.144;2022-09-09T15:41:38;100627.20;;;19.84
66403;BMP180;53212;52.112;5.144;2022-09-09T15:44:05;100625.80;;;19.98
66403;BMP180;53212;52.112;5.144;2022-09-09T15:46:42;100620.80;;;20.00
66403;BMP180;53212;52.112;5.144;2022-09-09T15:49:15;100622.00;;;20.10
66403;BMP180;53212;52.112;5.144;2022-09-09T15:51:58;100624.80;;;20.20
66403;BMP180;53212;52.112;5.144;2022-09-09T15:54:27;100617.80;;;20.30
66403;BMP180;53212;52.112;5.144;2022-09-09T15:56:59;100618.00;;;20.30
66403;BMP180;53212;52.112;5.144;2022-09-09T15:59:27;100614.80;;;20.30
66403;BMP180;53212;52.112;5.144;2022-09-09T16:01:53;100622.20;;;20.32
66403;BMP180;53212;52.112;5.144;2022-09-09T16:04:22;100631.00;;;20.40